sensor_id;sensor_type;location;lat;lon;timestamp;pressure;altitude;pressure_sealevel;temperature;humidity
51297;BME280;37380;45.186;9.792;2024-02-14T00:00:10;101827.63;;;5.09;93.68
51297;BME280;37380;45.186;9.792;2024-02-14T00:02:43;101826.75;;;5.12;93.75
51297;BME280;37380;45.186;9.792;2024-02-14T00:05:10;101838.06;;;4.89;91.97
51297;BME280;37380;45.186;9.792;2024-02-14T00:07:38;101837.81;;;4.83;91.86
51297;BME280;37380;45.186;9.792;2024-02-14T00:10:07;101840.78;;;4.76;92.39
51297;BME280;37380;45.186;9.792;2024-02-14T00:12:41;101846.53;;;4.82;93.18
51297;BME280;37380;45.186;9.792;2024-02-14T00:15:09;101841.44;;;4.80;92.59
51297;BME280;37380;45.186;9.792;2024-02-14T00:17:36;101837.75;;;4.70;91.58
51297;BME280;37380;45.186;9.792;2024-02-14T00:20:04;101842.66;;;4.79;92.57
51297;BME280;37380;45.186;9.792;2024-02-14T00:22:44;101850.34;;;4.71;92.24
51297;BME280;37380;45.186;9.792;2024-02-14T00:25:11;101844.31;;;4.76;92.70
51297;BME280;37380;45.186;9.792;2024-02-14T00:27:38;101845.09;;;4.77;92.82
51297;BME280;37380;45.186;9.792;2024-02-14T00:30:06;101838.97;;;4.98;92.63
51297;BME280;37380;45.186;9.792;2024-02-14T00:32:53;101838.13;;;5.14;92.79
51297;BME280;37380;45.186;9.792;2024-02-14T00:35:22;101836.44;;;5.32;92.18
51297;BME280;37380;45.186;9.792;2024-02-14T00:37:49;101839.94;;;5.33;91.82
51297;BME280;37380;45.186;9.792;2024-02-14T00:40:16;101845.88;;;5.19;91.16
51297;BME280;37380;45.186;9.792;2024-02-14T00:42:44;101845.16;;;5.02;91.16
51297;BME280;37380;45.186;9.792;2024-02-14T00:45:11;101853.31;;;4.93;91.18
51297;BME280;37380;45.186;9.792;2024-02-14T00:47:39;101848.97;;;4.80;92.44
51297;BME280;37380;45.186;9.792;2024-02-14T00:50:06;101852.41;;;4.84;92.65
51297;BME280;37380;45.186;9.792;2024-02-14T00:52:33;101849.88;;;4.89;92.46
51297;BME280;37380;45.186;9.792;2024-02-14T00:55:04;101842.34;;;4.90;92.68
51297;BME280;37380;45.186;9.792;2024-02-14T00:57:32;101845.81;;;4.94;92.26
51297;BME280;37380;45.186;9.792;2024-02-14T00:59:59;101845.28;;;4.99;91.65
51297;BME280;37380;45.186;9.792;2024-02-14T01:02:30;101839.06;;;4.95;90.29
51297;BME280;37380;45.186;9.792;2024-02-14T01:04:57;101842.56;;;4.83;91.15
51297;BME280;37380;45.186;9.792;2024-02-14T01:07:24;101849.25;;;4.69;91.77
51297;BME280;37380;45.186;9.792;2024-02-14T01:09:51;101851.03;;;4.75;91.98
51297;BME280;37380;45.186;9.792;2024-02-14T01:12:18;101851.56;;;4.70;91.95
51297;BME280;37380;45.186;9.792;2024-02-14T01:14:45;101844.75;;;4.75;92.23
51297;BME280;37380;45.186;9.792;2024-02-14T01:17:12;101847.31;;;4.82;92.09
51297;BME280;37380;45.186;9.792;2024-02-14T01:19:39;101858.25;;;4.86;92.67
51297;BME280;37380;45.186;9.792;2024-02-14T01:22:07;101861.78;;;4.86;91.57
51297;BME280;37380;45.186;9.792;2024-02-14T01:24:37;101869.97;;;4.90;91.90
51297;BME280;37380;45.186;9.792;2024-02-14T01:27:04;101863.38;;;5.00;91.93
51297;BME280;37380;45.186;9.792;2024-02-14T01:29:31;101865.47;;;4.96;92.47
51297;BME280;37380;45.186;9.792;2024-02-14T01:31:58;101866.84;;;5.04;92.02
51297;BME280;37380;45.186;9.792;2024-02-14T01:34:25;101866.84;;;4.88;91.57
51297;BME280;37380;45.186;9.792;2024-02-14T01:36:52;101863.38;;;5.00;91.65
51297;BME280;37380;45.186;9.792;2024-02-14T01:39:20;101867.56;;;4.92;90.46
51297;BME280;37380;45.186;9.792;2024-02-14T01:41:48;101863.00;;;4.85;90.82
51297;BME280;37380;45.186;9.792;2024-02-14T01:44:16;101866.19;;;4.84;91.82
51297;BME280;37380;45.186;9.792;2024-02-14T01:46:44;101872.50;;;4.84;91.75
51297;BME280;37380;45.186;9.792;2024-02-14T01:49:11;101869.22;;;4.73;92.11
51297;BME280;37380;45.186;9.792;2024-02-14T01:51:40;101867.84;;;4.81;92.69
51297;BME280;37380;45.186;9.792;2024-02-14T01:54:12;101877.81;;;4.91;92.06
51297;BME280;37380;45.186;9.792;2024-02-14T01:56:39;101887.16;;;4.81;92.26
51297;BME280;37380;45.186;9.792;2024-02-14T01:59:07;101872.72;;;4.90;92.51
51297;BME280;37380;45.186;9.792;2024-02-14T02:01:35;101881.00;;;4.90;91.91
51297;BME280;37380;45.186;9.792;2024-02-14T02:04:02;101871.25;;;5.01;92.28
51297;BME280;37380;45.186;9.792;2024-02-14T02:06:30;101881.69;;;4.94;92.12
51297;BME280;37380;45.186;9.792;2024-02-14T02:08:57;101882.13;;;4.92;92.14
51297;BME280;37380;45.186;9.792;2024-02-14T02:11:25;101872.97;;;4.95;91.91
51297;BME280;37380;45.186;9.792;2024-02-14T02:14:13;101874.47;;;5.12;91.78
51297;BME280;37380;45.186;9.792;2024-02-14T02:17:01;101875.19;;;5.00;92.46
51297;BME280;37380;45.186;9.792;2024-02-14T02:19:54;101876.66;;;5.05;92.56
51297;BME280;37380;45.186;9.792;2024-02-14T02:22:34;101868.38;;;5.05;93.23
51297;BME280;37380;45.186;9.792;2024-02-14T02:25:22;101880.28;;;5.02;92.43
51297;BME280;37380;45.186;9.792;2024-02-14T02:28:09;101874.56;;;5.09;92.62
51297;BME280;37380;45.186;9.792;2024-02-14T02:30:39;101881.59;;;4.97;92.08
51297;BME280;37380;45.186;9.792;2024-02-14T02:33:06;101882.03;;;4.96;92.16
51297;BME280;37380;45.186;9.792;2024-02-14T02:35:34;101875.41;;;4.93;92.29
51297;BME280;37380;45.186;9.792;2024-02-14T02:38:12;101870.47;;;5.01;93.10
51297;BME280;37380;45.186;9.792;2024-02-14T02:40:59;101864.50;;;5.02;92.80
51297;BME280;37380;45.186;9.792;2024-02-14T02:43:47;101868.91;;;5.00;92.19
51297;BME280;37380;45.186;9.792;2024-02-14T02:46:48;101871.06;;;4.92;92.51
51297;BME280;37380;45.186;9.792;2024-02-14T02:49:35;101869.78;;;4.97;92.06
51297;BME280;37380;45.186;9.792;2024-02-14T02:52:23;101872.16;;;5.11;90.87
51297;BME280;37380;45.186;9.792;2024-02-14T02:55:10;101866.00;;;4.91;90.57
51297;BME280;37380;45.186;9.792;2024-02-14T02:57:45;101872.28;;;4.62;90.26
51297;BME280;37380;45.186;9.792;2024-02-14T03:00:13;101872.16;;;4.66;91.15
51297;BME280;37380;45.186;9.792;2024-02-14T03:02:47;101873.91;;;4.60;92.07
51297;BME280;37380;45.186;9.792;2024-02-14T03:05:34;101878.84;;;4.52;92.76
51297;BME280;37380;45.186;9.792;2024-02-14T03:08:15;101879.69;;;4.49;92.97
51297;BME280;37380;45.186;9.792;2024-02-14T03:11:06;101871.94;;;4.44;94.53
51297;BME280;37380;45.186;9.792;2024-02-14T03:13:53;101868.66;;;4.49;94.25
51297;BME280;37380;45.186;9.792;2024-02-14T03:16:41;101866.88;;;4.43;94.39
51297;BME280;37380;45.186;9.792;2024-02-14T03:19:08;101876.59;;;4.47;94.41
51297;BME280;37380;45.186;9.792;2024-02-14T03:21:34;101875.22;;;4.55;94.61
51297;BME280;37380;45.186;9.792;2024-02-14T03:24:02;101881.25;;;4.50;93.78
51297;BME280;37380;45.186;9.792;2024-02-14T03:26:32;101880.38;;;4.37;92.70
51297;BME280;37380;45.186;9.792;2024-02-14T03:29:01;101895.22;;;4.27;92.87
51297;BME280;37380;45.186;9.792;2024-02-14T03:31:28;101897.78;;;4.18;92.75
51297;BME280;37380;45.186;9.792;2024-02-14T03:33:55;101886.41;;;4.00;92.33
51297;BME280;37380;45.186;9.792;2024-02-14T03:36:22;101896.31;;;3.97;92.92
51297;BME280;37380;45.186;9.792;2024-02-14T03:38:50;101889.94;;;3.84;92.90
51297;BME280;37380;45.186;9.792;2024-02-14T03:41:17;101885.34;;;3.78;93.47
51297;BME280;37380;45.186;9.792;2024-02-14T03:43:45;101902.31;;;3.76;93.14
51297;BME280;37380;45.186;9.792;2024-02-14T03:46:12;101902.22;;;3.80;93.46
51297;BME280;37380;45.186;9.792;2024-02-14T03:48:40;101907.34;;;3.62;92.79
51297;BME280;37380;45.186;9.792;2024-02-14T03:51:08;101904.31;;;3.56;93.24
51297;BME280;37380;45.186;9.792;2024-02-14T03:53:35;101916.75;;;3.45;93.93
51297;BME280;37380;45.186;9.792;2024-02-14T03:56:05;101913.16;;;3.48;94.29
51297;BME280;37380;45.186;9.792;2024-02-14T03:58:33;101910.06;;;3.46;93.18
51297;BME280;37380;45.186;9.792;2024-02-14T04:01:04;101918.47;;;3.38;93.62
51297;BME280;37380;45.186;9.792;2024-02-14T04:03:31;101918.38;;;3.42;93.38
51297;BME280;37380;45.186;9.792;2024-02-14T04:05:58;101917.72;;;3.34;93.08
51297;BME280;37380;45.186;9.792;2024-02-14T04:08:26;101920.34;;;3.41;94.23
51297;BME280;37380;45.186;9.792;2024-02-14T04:10:53;101927.91;;;3.37;94.17
51297;BME280;37380;45.186;9.792;2024-02-14T04:13:22;101927.69;;;3.28;94.29
51297;BME280;37380;45.186;9.792;2024-02-14T04:15:49;101928.03;;;3.30;93.72
51297;BME280;37380;45.186;9.792;2024-02-14T04:18:19;101931.28;;;3.25;93.16
51297;BME280;37380;45.186;9.792;2024-02-14T04:20:47;101944.00;;;3.19;94.01
51297;BME280;37380;45.186;9.792;2024-02-14T04:23:14;101928.81;;;3.11;94.15
51297;BME280;37380;45.186;9.792;2024-02-14T04:25:41;101933.63;;;3.27;93.98
51297;BME280;37380;45.186;9.792;2024-02-14T04:28:08;101938.34;;;3.26;94.12
51297;BME280;37380;45.186;9.792;2024-02-14T04:30:36;101927.75;;;3.45;93.99
51297;BME280;37380;45.186;9.792;2024-02-14T04:33:13;101930.84;;;3.47;94.11
51297;BME280;37380;45.186;9.792;2024-02-14T04:35:41;101938.69;;;3.09;93.61
51297;BME280;37380;45.186;9.792;2024-02-14T04:38:08;101943.84;;;3.26;93.98
51297;BME280;37380;45.186;9.792;2024-02-14T04:40:35;101939.34;;;3.36;94.63
51297;BME280;37380;45.186;9.792;2024-02-14T04:43:04;101944.84;;;3.16;93.10
51297;BME280;37380;45.186;9.792;2024-02-14T04:45:32;101938.72;;;2.86;92.08
51297;BME280;37380;45.186;9.792;2024-02-14T04:48:02;101948.94;;;2.85;93.42
51297;BME280;37380;45.186;9.792;2024-02-14T04:50:30;101958.75;;;2.86;93.84
51297;BME280;37380;45.186;9.792;2024-02-14T04:52:58;101961.50;;;2.86;93.99
51297;BME280;37380;45.186;9.792;2024-02-14T04:55:25;101966.69;;;2.81;93.61
51297;BME280;37380;45.186;9.792;2024-02-14T04:57:52;101961.06;;;2.88;94.63
51297;BME280;37380;45.186;9.792;2024-02-14T05:00:19;101964.13;;;2.93;94.69
51297;BME280;37380;45.186;9.792;2024-02-14T05:02:46;101968.38;;;2.98;93.99
51297;BME280;37380;45.186;9.792;2024-02-14T05:05:13;101983.75;;;2.95;94.88
51297;BME280;37380;45.186;9.792;2024-02-14T05:07:52;101978.69;;;3.13;94.94
51297;BME280;37380;45.186;9.792;2024-02-14T05:10:20;101978.91;;;3.03;93.84
51297;BME280;37380;45.186;9.792;2024-02-14T05:12:47;101982.41;;;2.80;92.10
51297;BME280;37380;45.186;9.792;2024-02-14T05:15:15;101985.66;;;2.75;92.30
51297;BME280;37380;45.186;9.792;2024-02-14T05:17:42;101983.25;;;2.77;91.89
51297;BME280;37380;45.186;9.792;2024-02-14T05:20:13;101993.06;;;2.55;91.71
51297;BME280;37380;45.186;9.792;2024-02-14T05:22:40;101994.97;;;2.58;92.91
51297;BME280;37380;45.186;9.792;2024-02-14T05:25:08;101988.38;;;2.52;92.62
51297;BME280;37380;45.186;9.792;2024-02-14T05:27:50;101991.63;;;2.70;93.41
51297;BME280;37380;45.186;9.792;2024-02-14T05:30:17;101984.94;;;2.71;93.87
51297;BME280;37380;45.186;9.792;2024-02-14T05:32:49;101976.22;;;2.76;93.48
51297;BME280;37380;45.186;9.792;2024-02-14T05:35:19;101975.81;;;2.51;93.49
51297;BME280;37380;45.186;9.792;2024-02-14T05:37:46;101968.66;;;2.57;93.28
51297;BME280;37380;45.186;9.792;2024-02-14T05:40:16;101960.22;;;2.44;92.76
51297;BME280;37380;45.186;9.792;2024-02-14T05:42:43;101960.41;;;2.34;94.05
51297;BME280;37380;45.186;9.792;2024-02-14T05:45:13;101970.72;;;2.26;94.32
51297;BME280;37380;45.186;9.792;2024-02-14T05:47:40;101977.56;;;2.15;94.18
51297;BME280;37380;45.186;9.792;2024-02-14T05:50:08;101981.59;;;2.07;94.08
51297;BME280;37380;45.186;9.792;2024-02-14T05:52:35;101986.25;;;2.10;95.74
51297;BME280;37380;45.186;9.792;2024-02-14T05:55:03;101986.09;;;2.20;95.18
51297;BME280;37380;45.186;9.792;2024-02-14T05:57:33;101994.63;;;2.29;95.99
51297;BME280;37380;45.186;9.792;2024-02-14T06:00:00;102001.44;;;2.18;96.23
51297;BME280;37380;45.186;9.792;2024-02-14T06:02:37;101989.94;;;1.99;95.24
51297;BME280;37380;45.186;9.792;2024-02-14T06:05:05;101986.38;;;2.02;95.29
51297;BME280;37380;45.186;9.792;2024-02-14T06:07:32;101993.63;;;2.43;96.21
51297;BME280;37380;45.186;9.792;2024-02-14T06:09:59;101990.63;;;2.34;94.73
51297;BME280;37380;45.186;9.792;2024-02-14T06:12:26;101987.13;;;2.30;94.65
51297;BME280;37380;45.186;9.792;2024-02-14T06:14:53;101994.88;;;2.38;94.89
51297;BME280;37380;45.186;9.792;2024-02-14T06:17:20;101997.50;;;2.19;94.40
51297;BME280;37380;45.186;9.792;2024-02-14T06:19:47;101999.84;;;2.20;94.61
51297;BME280;37380;45.186;9.792;2024-02-14T06:22:14;102002.66;;;2.17;94.50
51297;BME280;37380;45.186;9.792;2024-02-14T06:24:42;102009.19;;;2.26;94.89
51297;BME280;37380;45.186;9.792;2024-02-14T06:27:09;102012.72;;;2.27;93.73
51297;BME280;37380;45.186;9.792;2024-02-14T06:29:36;102017.28;;;2.10;92.99
51297;BME280;37380;45.186;9.792;2024-02-14T06:32:03;102025.13;;;2.08;93.13
51297;BME280;37380;45.186;9.792;2024-02-14T06:34:31;102023.16;;;2.09;92.86
51297;BME280;37380;45.186;9.792;2024-02-14T06:36:58;102034.41;;;2.18;93.26
51297;BME280;37380;45.186;9.792;2024-02-14T06:39:25;102032.56;;;2.38;93.49
51297;BME280;37380;45.186;9.792;2024-02-14T06:41:52;102041.19;;;2.40;94.26
51297;BME280;37380;45.186;9.792;2024-02-14T06:44:19;102043.47;;;2.71;94.63
51297;BME280;37380;45.186;9.792;2024-02-14T06:46:46;102037.28;;;2.64;94.21
51297;BME280;37380;45.186;9.792;2024-02-14T06:49:15;102043.50;;;2.68;94.59
51297;BME280;37380;45.186;9.792;2024-02-14T06:51:43;102040.06;;;2.87;95.23
51297;BME280;37380;45.186;9.792;2024-02-14T06:54:10;102047.81;;;2.96;94.02
51297;BME280;37380;45.186;9.792;2024-02-14T06:56:37;102045.16;;;2.89;93.11
51297;BME280;37380;45.186;9.792;2024-02-14T06:59:04;102058.34;;;3.01;93.58
51297;BME280;37380;45.186;9.792;2024-02-14T07:01:31;102069.38;;;2.74;92.70
51297;BME280;37380;45.186;9.792;2024-02-14T07:03:58;102074.63;;;2.65;92.23
51297;BME280;37380;45.186;9.792;2024-02-14T07:06:26;102075.44;;;2.62;93.80
51297;BME280;37380;45.186;9.792;2024-02-14T07:08:53;102064.22;;;2.76;94.18
51297;BME280;37380;45.186;9.792;2024-02-14T07:11:20;102076.47;;;2.71;93.71
51297;BME280;37380;45.186;9.792;2024-02-14T07:13:47;102087.00;;;2.77;93.74
51297;BME280;37380;45.186;9.792;2024-02-14T07:16:14;102084.66;;;2.75;93.14
51297;BME280;37380;45.186;9.792;2024-02-14T07:18:41;102093.31;;;3.23;93.42
51297;BME280;37380;45.186;9.792;2024-02-14T07:21:08;102089.28;;;3.31;91.94
51297;BME280;37380;45.186;9.792;2024-02-14T07:23:36;102095.66;;;3.02;92.07
51297;BME280;37380;45.186;9.792;2024-02-14T07:26:03;102103.75;;;3.35;92.01
51297;BME280;37380;45.186;9.792;2024-02-14T07:28:30;102105.59;;;3.42;91.53
51297;BME280;37380;45.186;9.792;2024-02-14T07:30:59;102106.72;;;3.68;91.06
51297;BME280;37380;45.186;9.792;2024-02-14T07:33:26;102104.19;;;3.77;91.44
51297;BME280;37380;45.186;9.792;2024-02-14T07:35:53;102110.84;;;3.99;91.28
51297;BME280;37380;45.186;9.792;2024-02-14T07:38:20;102113.97;;;4.01;90.55
51297;BME280;37380;45.186;9.792;2024-02-14T07:40:49;102116.88;;;3.94;90.73
51297;BME280;37380;45.186;9.792;2024-02-14T07:43:21;102118.69;;;4.00;92.29
51297;BME280;37380;45.186;9.792;2024-02-14T07:45:48;102124.34;;;4.13;91.77
51297;BME280;37380;45.186;9.792;2024-02-14T07:48:15;102114.78;;;4.37;92.88
51297;BME280;37380;45.186;9.792;2024-02-14T07:50:43;102124.84;;;4.63;92.01
51297;BME280;37380;45.186;9.792;2024-02-14T07:53:10;102124.31;;;5.04;90.66
51297;BME280;37380;45.186;9.792;2024-02-14T07:55:37;102128.75;;;5.18;89.69
51297;BME280;37380;45.186;9.792;2024-02-14T07:58:05;102128.38;;;5.48;89.03
51297;BME280;37380;45.186;9.792;2024-02-14T08:00:32;102123.72;;;5.61;89.07
51297;BME280;37380;45.186;9.792;2024-02-14T08:03:00;102129.63;;;5.76;89.25
51297;BME280;37380;45.186;9.792;2024-02-14T08:05:30;102124.31;;;5.53;89.10
51297;BME280;37380;45.186;9.792;2024-02-14T08:07:57;102124.34;;;5.81;89.92
51297;BME280;37380;45.186;9.792;2024-02-14T08:10:24;102131.47;;;6.11;88.46
51297;BME280;37380;45.186;9.792;2024-02-14T08:12:51;102114.94;;;6.36;86.61
51297;BME280;37380;45.186;9.792;2024-02-14T08:15:18;102123.38;;;6.58;86.92
51297;BME280;37380;45.186;9.792;2024-02-14T08:17:47;102129.59;;;6.87;86.69
51297;BME280;37380;45.186;9.792;2024-02-14T08:20:16;102123.41;;;7.08;85.13
51297;BME280;37380;45.186;9.792;2024-02-14T08:22:54;102139.47;;;7.26;85.71
51297;BME280;37380;45.186;9.792;2024-02-14T08:25:21;102132.28;;;7.50;84.05
51297;BME280;37380;45.186;9.792;2024-02-14T08:27:49;102129.97;;;7.61;84.16
51297;BME280;37380;45.186;9.792;2024-02-14T08:30:18;102133.66;;;7.80;83.56
51297;BME280;37380;45.186;9.792;2024-02-14T08:32:46;102131.59;;;7.93;83.10
51297;BME280;37380;45.186;9.792;2024-02-14T08:35:14;102134.53;;;8.11;83.19
51297;BME280;37380;45.186;9.792;2024-02-14T08:37:42;102128.94;;;8.24;81.90
51297;BME280;37380;45.186;9.792;2024-02-14T08:40:09;102130.75;;;8.39;81.07
51297;BME280;37380;45.186;9.792;2024-02-14T08:42:39;102134.59;;;8.63;80.29
51297;BME280;37380;45.186;9.792;2024-02-14T08:45:06;102135.47;;;7.95;76.96
51297;BME280;37380;45.186;9.792;2024-02-14T08:47:33;102141.09;;;7.83;76.48
51297;BME280;37380;45.186;9.792;2024-02-14T08:50:01;102138.59;;;8.41;79.20
51297;BME280;37380;45.186;9.792;2024-02-14T08:52:29;102142.94;;;8.72;78.81
51297;BME280;37380;45.186;9.792;2024-02-14T08:54:57;102144.41;;;8.55;79.43
51297;BME280;37380;45.186;9.792;2024-02-14T08:57:24;102145.19;;;8.87;77.63
51297;BME280;37380;45.186;9.792;2024-02-14T08:59:50;102142.19;;;9.03;77.03
51297;BME280;37380;45.186;9.792;2024-02-14T09:02:18;102138.50;;;9.15;75.57
51297;BME280;37380;45.186;9.792;2024-02-14T09:04:45;102147.53;;;9.46;74.10
51297;BME280;37380;45.186;9.792;2024-02-14T09:07:12;102147.19;;;8.86;73.08
51297;BME280;37380;45.186;9.792;2024-02-14T09:09:40;102145.03;;;8.81;76.64
51297;BME280;37380;45.186;9.792;2024-02-14T09:12:07;102149.06;;;9.38;76.29
51297;BME280;37380;45.186;9.792;2024-02-14T09:14:35;102135.81;;;9.51;77.02
51297;BME280;37380;45.186;9.792;2024-02-14T09:17:03;102142.94;;;9.79;77.28
51297;BME280;37380;45.186;9.792;2024-02-14T09:19:30;102124.56;;;9.73;73.56
51297;BME280;37380;45.186;9.792;2024-02-14T09:21:57;102126.88;;;9.83;75.02
51297;BME280;37380;45.186;9.792;2024-02-14T09:24:24;102129.66;;;9.83;73.69
51297;BME280;37380;45.186;9.792;2024-02-14T09:26:52;102131.81;;;9.79;75.94
51297;BME280;37380;45.186;9.792;2024-02-14T09:29:19;102122.06;;;10.11;74.33
51297;BME280;37380;45.186;9.792;2024-02-14T09:31:46;102124.34;;;10.49;73.41
51297;BME280;37380;45.186;9.792;2024-02-14T09:34:15;102131.06;;;9.88;69.64
51297;BME280;37380;45.186;9.792;2024-02-14T09:36:47;102120.72;;;9.88;69.73
51297;BME280;37380;45.186;9.792;2024-02-14T09:39:16;102117.31;;;10.21;69.98
51297;BME280;37380;45.186;9.792;2024-02-14T09:41:52;102126.56;;;10.36;69.95
51297;BME280;37380;45.186;9.792;2024-02-14T09:44:21;102122.34;;;10.49;68.48
51297;BME280;37380;45.186;9.792;2024-02-14T09:46:48;102117.34;;;10.71;67.74
51297;BME280;37380;45.186;9.792;2024-02-14T09:49:16;102121.19;;;10.74;67.56
51297;BME280;37380;45.186;9.792;2024-02-14T09:51:46;102123.47;;;10.43;67.63
51297;BME280;37380;45.186;9.792;2024-02-14T09:54:13;102121.50;;;10.76;68.88
51297;BME280;37380;45.186;9.792;2024-02-14T09:56:50;102123.25;;;10.64;66.52
51297;BME280;37380;45.186;9.792;2024-02-14T09:59:21;102121.53;;;10.67;66.20
51297;BME280;37380;45.186;9.792;2024-02-14T10:01:49;102122.84;;;10.30;66.81
51297;BME280;37380;45.186;9.792;2024-02-14T10:04:19;102130.75;;;10.13;67.03
51297;BME280;37380;45.186;9.792;2024-02-14T10:06:52;102136.31;;;10.40;67.74
51297;BME280;37380;45.186;9.792;2024-02-14T10:09:22;102130.38;;;10.56;67.81
51297;BME280;37380;45.186;9.792;2024-02-14T10:11:49;102134.00;;;10.80;72.16
51297;BME280;37380;45.186;9.792;2024-02-14T10:14:17;102132.38;;;11.30;69.86
51297;BME280;37380;45.186;9.792;2024-02-14T10:16:43;102133.47;;;11.33;66.87
51297;BME280;37380;45.186;9.792;2024-02-14T10:19:16;102133.66;;;11.53;67.49
51297;BME280;37380;45.186;9.792;2024-02-14T10:22:03;102140.47;;;11.28;65.56
51297;BME280;37380;45.186;9.792;2024-02-14T10:24:32;102141.59;;;11.45;67.10
51297;BME280;37380;45.186;9.792;2024-02-14T10:27:00;102147.72;;;11.02;66.42
51297;BME280;37380;45.186;9.792;2024-02-14T10:29:29;102152.09;;;10.85;66.72
51297;BME280;37380;45.186;9.792;2024-02-14T10:31:57;102148.19;;;11.01;66.26
51297;BME280;37380;45.186;9.792;2024-02-14T10:34:25;102146.59;;;10.67;66.46
51297;BME280;37380;45.186;9.792;2024-02-14T10:36:56;102141.69;;;10.53;67.00
51297;BME280;37380;45.186;9.792;2024-02-14T10:39:25;102139.53;;;10.48;67.64
51297;BME280;37380;45.186;9.792;2024-02-14T10:41:53;102143.59;;;10.79;67.40
51297;BME280;37380;45.186;9.792;2024-02-14T10:44:21;102152.69;;;11.31;67.22
51297;BME280;37380;45.186;9.792;2024-02-14T10:46:52;102154.72;;;11.54;67.86
51297;BME280;37380;45.186;9.792;2024-02-14T10:49:20;102150.31;;;11.06;66.55
51297;BME280;37380;45.186;9.792;2024-02-14T10:51:48;102160.53;;;11.09;66.92
51297;BME280;37380;45.186;9.792;2024-02-14T10:54:18;102162.59;;;11.32;66.43
51297;BME280;37380;45.186;9.792;2024-02-14T10:56:49;102147.91;;;11.79;67.90
51297;BME280;37380;45.186;9.792;2024-02-14T10:59:20;102145.16;;;11.22;65.31
51297;BME280;37380;45.186;9.792;2024-02-14T11:01:48;102141.06;;;11.00;65.20
51297;BME280;37380;45.186;9.792;2024-02-14T11:04:16;102143.66;;;11.12;66.29
51297;BME280;37380;45.186;9.792;2024-02-14T11:06:48;102127.66;;;11.69;67.85
51297;BME280;37380;45.186;9.792;2024-02-14T11:09:16;102129.09;;;12.03;66.72
51297;BME280;37380;45.186;9.792;2024-02-14T11:11:44;102127.09;;;12.18;65.96
51297;BME280;37380;45.186;9.792;2024-02-14T11:14:15;102120.28;;;12.63;64.77
51297;BME280;37380;45.186;9.792;2024-02-14T11:16:45;102126.53;;;12.72;64.79
51297;BME280;37380;45.186;9.792;2024-02-14T11:19:14;102119.56;;;12.82;64.37
51297;BME280;37380;45.186;9.792;2024-02-14T11:21:46;102117.00;;;12.64;65.48
51297;BME280;37380;45.186;9.792;2024-02-14T11:24:15;102117.50;;;12.48;61.47
51297;BME280;37380;45.186;9.792;2024-02-14T11:26:46;102107.16;;;12.54;65.42
51297;BME280;37380;45.186;9.792;2024-02-14T11:29:15;102098.19;;;12.79;64.31
51297;BME280;37380;45.186;9.792;2024-02-14T11:31:58;102101.59;;;13.04;66.09
51297;BME280;37380;45.186;9.792;2024-02-14T11:34:27;102093.31;;;12.95;63.14
51297;BME280;37380;45.186;9.792;2024-02-14T11:36:54;102097.44;;;13.14;61.22
51297;BME280;37380;45.186;9.792;2024-02-14T11:39:23;102090.75;;;13.26;62.92
51297;BME280;37380;45.186;9.792;2024-02-14T11:41:50;102090.06;;;13.51;62.44
51297;BME280;37380;45.186;9.792;2024-02-14T11:44:19;102089.06;;;13.74;60.85
51297;BME280;37380;45.186;9.792;2024-02-14T11:46:49;102096.22;;;13.35;59.29
51297;BME280;37380;45.186;9.792;2024-02-14T11:49:16;102095.13;;;12.63;60.30
51297;BME280;37380;45.186;9.792;2024-02-14T11:51:45;102087.41;;;12.14;61.62
51297;BME280;37380;45.186;9.792;2024-02-14T11:54:12;102090.50;;;12.31;60.36
51297;BME280;37380;45.186;9.792;2024-02-14T11:56:39;102081.06;;;12.57;59.29
51297;BME280;37380;45.186;9.792;2024-02-14T11:59:07;102083.28;;;12.39;60.57
51297;BME280;37380;45.186;9.792;2024-02-14T12:01:37;102074.72;;;12.13;58.62
51297;BME280;37380;45.186;9.792;2024-02-14T12:04:07;102079.53;;;12.12;62.33
51297;BME280;37380;45.186;9.792;2024-02-14T12:06:36;102076.75;;;12.27;60.90
51297;BME280;37380;45.186;9.792;2024-02-14T12:09:05;102063.44;;;11.93;60.15
51297;BME280;37380;45.186;9.792;2024-02-14T12:11:36;102064.97;;;12.23;62.67
51297;BME280;37380;45.186;9.792;2024-02-14T12:14:06;102077.03;;;12.14;60.86
51297;BME280;37380;45.186;9.792;2024-02-14T12:16:38;102067.38;;;12.59;61.39
51297;BME280;37380;45.186;9.792;2024-02-14T12:19:09;102069.75;;;12.66;59.33
51297;BME280;37380;45.186;9.792;2024-02-14T12:21:38;102064.38;;;12.77;58.94
51297;BME280;37380;45.186;9.792;2024-02-14T12:24:10;102064.69;;;12.50;60.62
51297;BME280;37380;45.186;9.792;2024-02-14T12:26:38;102055.75;;;12.32;60.56
51297;BME280;37380;45.186;9.792;2024-02-14T12:29:06;102050.16;;;12.02;61.76
51297;BME280;37380;45.186;9.792;2024-02-14T12:31:34;102042.63;;;12.08;59.44
51297;BME280;37380;45.186;9.792;2024-02-14T12:34:03;102040.06;;;12.05;60.25
51297;BME280;37380;45.186;9.792;2024-02-14T12:36:34;102042.34;;;12.21;61.94
51297;BME280;37380;45.186;9.792;2024-02-14T12:39:02;102046.59;;;12.16;60.60
51297;BME280;37380;45.186;9.792;2024-02-14T12:41:30;102039.00;;;12.32;60.35
51297;BME280;37380;45.186;9.792;2024-02-14T12:44:02;102040.97;;;12.60;60.89
51297;BME280;37380;45.186;9.792;2024-02-14T12:46:29;102036.81;;;12.70;61.61
51297;BME280;37380;45.186;9.792;2024-02-14T12:48:56;102043.31;;;12.47;61.17
51297;BME280;37380;45.186;9.792;2024-02-14T12:51:24;102041.53;;;12.64;61.21
51297;BME280;37380;45.186;9.792;2024-02-14T12:53:55;102033.97;;;12.50;61.55
51297;BME280;37380;45.186;9.792;2024-02-14T12:56:23;102034.41;;;12.63;60.65
51297;BME280;37380;45.186;9.792;2024-02-14T12:58:50;102038.09;;;12.40;62.06
51297;BME280;37380;45.186;9.792;2024-02-14T13:01:17;102030.38;;;12.50;64.10
51297;BME280;37380;45.186;9.792;2024-02-14T13:03:45;102042.63;;;12.52;62.65
51297;BME280;37380;45.186;9.792;2024-02-14T13:06:12;102032.25;;;12.73;63.22
51297;BME280;37380;45.186;9.792;2024-02-14T13:08:42;102030.44;;;12.70;62.54